Gure Gogoa — EAJC — position and weather

sailwx.info

Track history (hours):
 
Tides and Currents Weather Stations Pressure Air Temp Water Temp Dewpoint Dewpoint Depression Visibility Wind Speed Wind Dir Waves Ship Positions

Gure Gogoa

Last reported at 2017-Mar-29 02:05 UTC. Time now 2017-Mar-29 13:29 UTC.
Position N 43°55' W 001°56'.

Length 37 m.

Type: Fishing. MMSI: 224128930.

Date/timePositionNaut miles runAvg speedWind from/ knotsBaromVisibWave heightAir tempDewpointWater temp
2017-Mar-29 02:05N 43°55' W 001°56'3 5.1
2017-Mar-29 01:33N 43°53' W 001°56'1 0.6
2017-Mar-29 00:14N 43°53' W 001°55'0 0.2
2017-Mar-28 23:33N 43°53' W 001°55'7 1.4
2017-Mar-28 18:31N 43°47' W 001°57'1 0.5
2017-Mar-28 16:33N 43°46' W 001°56'2 0.1
2017-Mar-27 22:22N 43°43' W 001°55'22 5.3
2017-Mar-27 18:18N 43°22' W 001°59'1 1.7
2017-Mar-27 17:31N 43°21' W 001°57'  
2017-Mar-23 07:33N 43°21' W 001°56'8 2.4
2017-Mar-23 04:05N 43°21' W 002°07'3 5.5
2017-Mar-23 03:31N 43°21' W 002°03'1 0.8
2017-Mar-23 02:33N 43°21' W 002°04'3 0.2
2017-Mar-22 05:23N 43°21' W 001°60'7 8.2
2017-Mar-22 04:33N 43°26' W 001°53'9 9.3
2017-Mar-22 03:33N 43°33' W 001°45'  
Track history (hours):
 
Tides and Currents Weather Stations Pressure Air Temp Water Temp Dewpoint Dewpoint Depression Visibility Wind Speed Wind Dir Waves Ship Positions

Gure Gogoa

Last reported at 2017-Mar-29 02:05 UTC. Time now 2017-Mar-29 13:29 UTC.
Position N 43°55' W 001°56'.

Length 37 m.

Type: Fishing. MMSI: 224128930.

Date/timePositionNaut miles runAvg speedWind from/ knotsBaromVisibWave heightAir tempDewpointWater temp
2017-Mar-29 02:05N 43°55' W 001°56'3 5.1
2017-Mar-29 01:33N 43°53' W 001°56'1 0.6
2017-Mar-29 00:14N 43°53' W 001°55'0 0.2
2017-Mar-28 23:33N 43°53' W 001°55'7 1.4
2017-Mar-28 18:31N 43°47' W 001°57'1 0.5
2017-Mar-28 16:33N 43°46' W 001°56'2 0.1
2017-Mar-27 22:22N 43°43' W 001°55'22 5.3
2017-Mar-27 18:18N 43°22' W 001°59'1 1.7
2017-Mar-27 17:31N 43°21' W 001°57'  
2017-Mar-23 07:33N 43°21' W 001°56'8 2.4
2017-Mar-23 04:05N 43°21' W 002°07'3 5.5
2017-Mar-23 03:31N 43°21' W 002°03'1 0.8
2017-Mar-23 02:33N 43°21' W 002°04'3 0.2
2017-Mar-22 05:23N 43°21' W 001°60'7 8.2
2017-Mar-22 04:33N 43°26' W 001°53'9 9.3
2017-Mar-22 03:33N 43°33' W 001°45'  

Dump ship's entire track history